createdAt,value
2023-01-15T00:00:32.416Z,20.3
2023-01-15T00:15:32.773Z,20.4
2023-01-15T00:30:32.727Z,20.4
2023-01-15T00:45:31.883Z,20.4
2023-01-15T01:00:32.077Z,20.4
2023-01-15T01:15:31.887Z,20.5
2023-01-15T01:30:32.351Z,20.5
2023-01-15T01:45:32.249Z,20.5
2023-01-15T02:00:32.745Z,20.5
2023-01-15T02:15:32.165Z,20.5
2023-01-15T02:30:31.945Z,20.5
2023-01-15T02:45:31.988Z,20.6
2023-01-15T03:00:31.934Z,20.5
2023-01-15T03:15:31.913Z,20.6
2023-01-15T03:30:32.638Z,20.6
2023-01-15T03:45:32.104Z,20.6
2023-01-15T04:00:31.993Z,20.6
2023-01-15T04:15:32.177Z,20.6
2023-01-15T04:30:32.513Z,20.6
2023-01-15T04:45:32.077Z,20.6
2023-01-15T05:00:31.797Z,20.6
2023-01-15T05:15:32.411Z,20.6
2023-01-15T05:30:32.902Z,20.5
2023-01-15T05:45:31.951Z,20.5
2023-01-15T06:00:32.270Z,20.4
2023-01-15T06:15:31.980Z,20.4
2023-01-15T06:30:32.192Z,20.4
2023-01-15T06:45:31.972Z,20.4
2023-01-15T07:00:34.928Z,20.4
2023-01-15T07:15:31.821Z,20.3
2023-01-15T07:30:32.821Z,20.4
2023-01-15T07:45:32.080Z,20.3
2023-01-15T08:00:34.698Z,20.3
2023-01-15T08:15:32.422Z,20.3
2023-01-15T08:30:32.084Z,20.3
2023-01-15T08:45:32.816Z,20.3
2023-01-15T09:00:33.913Z,20.3
2023-01-15T09:15:32.543Z,20.3
2023-01-15T09:30:32.564Z,20.3
2023-01-15T09:45:32.406Z,20.3
2023-01-15T10:00:35.353Z,20.3
2023-01-15T10:15:32.544Z,20.3
2023-01-15T10:30:32.283Z,20.3
2023-01-15T10:45:32.064Z,20.3
2023-01-15T11:00:33.192Z,20.3
2023-01-15T11:15:32.801Z,20.3
2023-01-15T11:30:33.230Z,20.3
2023-01-15T11:45:32.486Z,20.3
2023-01-15T12:00:34.520Z,20.2
2023-01-15T12:15:33.252Z,20.3
2023-01-15T12:30:32.843Z,20.2
2023-01-15T12:45:32.531Z,20.2
2023-01-15T13:00:34.536Z,20.2
2023-01-15T13:15:32.106Z,20.2
2023-01-15T13:30:33.159Z,20.2
2023-01-15T13:45:33.004Z,20.3
2023-01-15T14:00:33.217Z,20.2
2023-01-15T14:15:31.762Z,20.2
2023-01-15T14:30:32.573Z,20.2
2023-01-15T14:45:32.537Z,20.3
2023-01-15T15:00:33.769Z,20.3
2023-01-15T15:15:32.059Z,20.3
2023-01-15T15:30:33.539Z,20.3
2023-01-15T15:45:32.746Z,20.3
2023-01-15T16:00:34.615Z,20.3
2023-01-15T16:15:32.032Z,20.3
2023-01-15T16:30:33.664Z,20.3
2023-01-15T16:45:32.183Z,20.4
2023-01-15T17:00:33.601Z,20.3
2023-01-15T17:15:32.187Z,20.3
2023-01-15T17:30:33.596Z,20.3
2023-01-15T17:45:32.645Z,20.3
2023-01-15T18:00:34.675Z,20.3
2023-01-15T18:15:32.571Z,20.2
2023-01-15T18:30:31.852Z,20.3
2023-01-15T18:45:32.438Z,20.2
2023-01-15T19:00:35.316Z,20.2
2023-01-15T19:15:33.331Z,20.2
2023-01-15T19:30:33.014Z,20.2
2023-01-15T19:45:32.082Z,20.1
2023-01-15T20:00:36.716Z,20.1
2023-01-15T20:15:32.543Z,20.1
2023-01-15T20:30:32.465Z,20.1
2023-01-15T20:45:32.731Z,20.1
2023-01-15T21:00:32.814Z,20.1
2023-01-15T21:15:32.103Z,20.0
2023-01-15T21:30:32.577Z,20
2023-01-15T21:45:32.610Z,20.0
2023-01-15T22:00:32.558Z,20
2023-01-15T22:15:32.615Z,20
2023-01-15T22:30:32.602Z,20.0
2023-01-15T22:45:31.930Z,19.9
2023-01-15T23:00:32.234Z,19.9
2023-01-15T23:15:32.392Z,19.9
2023-01-15T23:30:32.191Z,19.9
2023-01-15T23:45:32.472Z,19.9
